OIZI 
Iran Shahr Airport
Iran 
ICAOStatus
OIZIOperational
LatitudeLongitude
27° 14' 9" N60° 43' 12" E
27.23609960.720001
Local Time (DST+5)UTC (GMT+4)
04-18-2014 12:32 pm04-18-2014 08:02
Sunrise-SunsetLocalUTC
Begin Civil Twilight05:34 am01:04
Sunrise05:58 am01:28
Sunset06:54 pm14:24
End Civil Twilight07:18 pm14:48

Current Weather

METARObservedFlight Conditions

OIZI 180700Z 00000KT CAVOK 34/02 Q1014

Fri, Apr 18, 2014 @ 07:00 UTC(Z)

(1 Hour, 2 Minutes ago)

VFR

(Visual Flight Rules)

WindVisibilityCloudsConditions
Calm
10 km or more
  • Clear skies
  • No significant weather
TemperaturesReadingsPrecipitation
Current Temp34°C (93°F)
Dewpoint2°C (36°F)
Humidity13%
Altimeter29.94"Hg
Sea Level Pressure1014mb
Field Elevation1938.98'
None Recorded

Previous 24 hour Weather Graphs

  Loading...

CheckWX.com is intended as a tool to help pilots better visualize weather data.   It is not intended as a substitute for an official weather briefing obtained from a Flight Service Station.
CheckWX.com does not meet the FAA requirements for an official pre-flight weather briefing.   Therefore, it's important that pilots still call and obtain an official FSS pre-flight weather briefing.